Harbinger, North Carolina
Current Conditions -  °F | °C
As of 12:15 PM on Wednesday 26 Nov 2014 (Local Time) from KFFA Reporting Station
Heavy Rain Heavy Rain  
Wind Chill: 52°   Ceiling: 600
Heat Index: 52°   Visibility: 1.5mi
Dew Point: 52°   Wind: 15mph
Humidity: 99%   Direction: 340°NNW
Pressure: 29.69"   Gusts: 26mph
Location:  36.1°N, 75.81°W
Report Text: KFFA 261715Z AUTO 34013G23KT 320V020 1 1/2SM +RA OVC006 11/11 A2969 RMK AO2 P0016 T01110110
Loading
Personal Weather Stations






























Interactive Weather Map New forecast layout! Learn more

10-Day Weather Forecast

Advertisements
Track Severe Weather on mobile